createdAt,value
2018-02-12T00:00:00.773Z,92.91
2018-02-12T00:02:30.480Z,93.39
2018-02-12T00:05:00.106Z,93.63
2018-02-12T00:07:29.924Z,93.97
2018-02-12T00:10:00.387Z,94.51
2018-02-12T00:12:30.755Z,95.09
2018-02-12T00:15:01.747Z,95.50
2018-02-12T00:17:31.725Z,95.30
2018-02-12T00:20:01.652Z,95.23
2018-02-12T00:22:32.533Z,95.05
2018-02-12T00:25:02.349Z,95.00
2018-02-12T00:27:32.206Z,94.86
2018-02-12T00:30:03.033Z,94.77
2018-02-12T00:32:32.894Z,94.36
2018-02-12T00:35:02.956Z,93.97
2018-02-12T00:37:32.793Z,93.89
2018-02-12T00:40:05.422Z,93.02
2018-02-12T00:42:46.079Z,93.47
2018-02-12T00:45:15.953Z,93.75
2018-02-12T00:47:47.595Z,93.78
2018-02-12T00:50:17.572Z,94.47
2018-02-12T00:52:47.551Z,93.56
2018-02-12T00:55:17.925Z,93.66
2018-02-12T00:57:47.785Z,93.57
2018-02-12T01:00:17.631Z,93.96
2018-02-12T01:02:49.060Z,94.29
2018-02-12T01:05:18.904Z,94.61
2018-02-12T01:07:48.943Z,94.69
2018-02-12T01:10:18.754Z,94.61
2018-02-12T01:12:48.609Z,94.65
2018-02-12T01:15:18.423Z,94.99
2018-02-12T01:17:48.220Z,95.47
2018-02-12T01:20:18.078Z,95.65
2018-02-12T01:22:47.677Z,95.67
2018-02-12T01:25:17.502Z,95.54
2018-02-12T01:27:47.313Z,95.47
2018-02-12T01:30:17.151Z,95.40
2018-02-12T01:32:47.143Z,95.51
2018-02-12T01:35:17.029Z,95.62
2018-02-12T01:37:46.856Z,95.66
2018-02-12T01:40:16.667Z,95.80
2018-02-12T01:42:46.592Z,95.76
2018-02-12T01:45:16.408Z,95.57
2018-02-12T01:47:46.223Z,95.59
2018-02-12T01:50:19.188Z,95.57
2018-02-12T01:52:49.040Z,94.80
2018-02-12T01:55:18.869Z,93.56
2018-02-12T01:57:48.603Z,93.93
2018-02-12T02:00:18.440Z,93.93
2018-02-12T02:02:48.306Z,93.71
2018-02-12T02:05:18.068Z,93.26
2018-02-12T02:07:47.905Z,93.21
2018-02-12T02:10:17.724Z,92.92
2018-02-12T02:12:47.616Z,93.34
2018-02-12T02:15:17.424Z,93.76
2018-02-12T02:17:47.235Z,94.07
2018-02-12T02:20:17.099Z,94.36
2018-02-12T02:22:46.912Z,94.31
2018-02-12T02:25:16.727Z,94.36
2018-02-12T02:27:46.572Z,94.49
2018-02-12T02:30:16.414Z,94.56
2018-02-12T02:32:46.239Z,94.27
2018-02-12T02:35:16.077Z,94.17
2018-02-12T02:37:45.922Z,93.67
2018-02-12T02:40:15.771Z,93.72
2018-02-12T02:42:45.604Z,93.60
2018-02-12T02:45:15.631Z,93.37
2018-02-12T02:47:45.481Z,93.05
2018-02-12T02:50:15.376Z,93.04
2018-02-12T02:52:45.576Z,92.80
2018-02-12T02:55:15.422Z,93.60
2018-02-12T02:57:45.478Z,93.58
2018-02-12T03:00:15.174Z,93.03
2018-02-12T03:02:44.970Z,93.24
2018-02-12T03:05:14.792Z,93.11
2018-02-12T03:07:44.606Z,93.02
2018-02-12T03:10:14.435Z,93.05
2018-02-12T03:12:44.284Z,93.14
2018-02-12T03:15:14.188Z,93.06
2018-02-12T03:17:44.026Z,92.38
2018-02-12T03:20:14.115Z,92.85
2018-02-12T03:22:43.937Z,92.84
2018-02-12T03:25:13.767Z,92.17
2018-02-12T03:27:43.656Z,92.21
2018-02-12T03:30:13.470Z,91.74
2018-02-12T03:32:43.345Z,91.54
2018-02-12T03:35:13.165Z,91.27
2018-02-12T03:37:43.022Z,91.88
2018-02-12T03:40:12.864Z,91.33
2018-02-12T03:42:42.692Z,91.71
2018-02-12T03:45:12.321Z,91.28
2018-02-12T03:47:41.858Z,91.12
2018-02-12T03:50:11.992Z,91.49
2018-02-12T03:52:41.805Z,91.73
2018-02-12T03:55:11.699Z,91.40
2018-02-12T03:57:41.501Z,92.17
2018-02-12T04:00:11.313Z,92.06
2018-02-12T04:02:41.135Z,92.06
2018-02-12T04:05:10.956Z,92.05
2018-02-12T04:07:40.790Z,92.27
2018-02-12T04:10:10.617Z,92.54
2018-02-12T04:12:40.457Z,92.56
2018-02-12T04:15:10.269Z,92.69
2018-02-12T04:17:40.094Z,93.00
2018-02-12T04:20:09.928Z,93.30
2018-02-12T04:22:39.745Z,93.52
2018-02-12T04:25:09.641Z,93.93
2018-02-12T04:27:39.467Z,94.33
2018-02-12T04:30:09.310Z,94.04
2018-02-12T04:32:39.134Z,94.19
2018-02-12T04:35:08.963Z,94.40
2018-02-12T04:37:38.788Z,94.63
2018-02-12T04:40:08.598Z,94.67
2018-02-12T04:42:38.461Z,95.02
2018-02-12T04:45:08.284Z,94.92
2018-02-12T04:47:38.135Z,94.94
2018-02-12T04:50:07.964Z,95.02
2018-02-12T04:52:37.792Z,94.87
2018-02-12T04:55:07.696Z,94.55
2018-02-12T04:57:37.557Z,94.42
2018-02-12T05:00:07.376Z,93.76
2018-02-12T05:02:38.013Z,92.64
2018-02-12T05:05:07.841Z,93.19
2018-02-12T05:07:37.666Z,92.36
2018-02-12T05:10:07.495Z,91.53
2018-02-12T05:12:37.313Z,91.49
2018-02-12T05:15:07.208Z,92.10
2018-02-12T05:17:37.038Z,91.50
2018-02-12T05:20:06.888Z,91.85
2018-02-12T05:22:47.485Z,91.72
2018-02-12T05:25:18.233Z,91.58
2018-02-12T05:27:48.077Z,91.21
2018-02-12T05:30:17.958Z,91.12
2018-02-12T05:32:47.815Z,91.31
2018-02-12T05:35:17.652Z,91.76
2018-02-12T05:37:47.480Z,91.88
2018-02-12T05:40:18.616Z,92.40
2018-02-12T05:42:48.431Z,92.09
2018-02-12T05:45:18.443Z,91.82
2018-02-12T05:47:48.297Z,91.81
2018-02-12T05:50:18.133Z,91.77
2018-02-12T05:52:47.943Z,92.00
2018-02-12T05:55:19.055Z,91.38
2018-02-12T05:57:50.863Z,91.41
2018-02-12T06:00:21.535Z,91.52
2018-02-12T06:02:51.318Z,91.54
2018-02-12T06:05:21.239Z,90.62
2018-02-12T06:07:51.077Z,91.01
2018-02-12T06:10:20.943Z,90.82
2018-02-12T06:12:50.791Z,91.16
2018-02-12T06:15:20.623Z,91.02
2018-02-12T06:17:50.516Z,91.87
2018-02-12T06:20:20.826Z,91.48
2018-02-12T06:22:50.597Z,91.67
2018-02-12T06:25:20.656Z,91.51
2018-02-12T06:27:51.355Z,91.63
2018-02-12T06:30:21.174Z,92.09
2018-02-12T06:32:50.831Z,91.79
2018-02-12T06:35:22.968Z,91.88
2018-02-12T06:37:52.917Z,91.69
2018-02-12T06:40:33.231Z,91.04
2018-02-12T17:46:54.448Z,73.62
2018-02-12T18:01:05.263Z,74.61
2018-02-12T18:03:46.835Z,75.44
2018-02-12T18:16:52.475Z,77.31
2018-02-12T18:25:29.652Z,77.40
2018-02-12T18:28:04.487Z,77.28
2018-02-12T18:30:35.094Z,77.68
2018-02-12T18:33:09.023Z,77.95
2018-02-12T18:35:39.941Z,77.91
2018-02-12T18:38:11.631Z,77.97
2018-02-12T18:40:43.339Z,78.16
2018-02-12T18:46:03.782Z,79.03
2018-02-12T18:48:56.019Z,79.39
2018-02-12T18:51:26.797Z,79.73
2018-02-12T18:54:01.278Z,79.58
2018-02-12T18:56:31.408Z,80.09
2018-02-12T18:59:02.896Z,80.43
2018-02-12T19:01:35.075Z,80.69
2018-02-12T19:04:04.975Z,80.91
2018-02-12T19:06:35.359Z,80.56
2018-02-12T19:09:05.447Z,80.72
2018-02-12T19:11:36.111Z,80.72
2018-02-12T19:14:06.214Z,80.41
2018-02-12T19:16:36.616Z,80.21
2018-02-12T19:19:07.093Z,80.58
2018-02-12T19:21:37.035Z,80.22
2018-02-12T19:24:11.101Z,80.91
2018-02-12T19:26:42.824Z,81.46
2018-02-12T19:29:13.185Z,82.09
2018-02-12T19:31:43.475Z,81.83
2018-02-12T19:34:22.399Z,81.07
2018-02-12T19:36:52.795Z,80.44
2018-02-12T19:39:25.864Z,79.69
2018-02-12T19:41:55.926Z,79.94
2018-02-12T19:44:37.089Z,78.92
2018-02-12T19:47:06.884Z,78.13
2018-02-12T19:49:36.909Z,78.43
2018-02-12T19:52:07.454Z,77.31
2018-02-12T19:54:37.744Z,77.64
2018-02-12T19:57:08.270Z,78.16
2018-02-12T19:59:38.274Z,78.40
2018-02-12T20:02:17.432Z,77.56
2018-02-12T20:04:48.784Z,77.57
2018-02-12T20:07:18.932Z,76.86
2018-02-12T20:09:55.061Z,76.98
2018-02-12T20:12:27.768Z,77.53
2018-02-12T20:14:58.616Z,77.29
2018-02-12T20:17:30.635Z,77.51
2018-02-12T20:20:06.255Z,78.23
2018-02-12T20:22:39.277Z,78.00
2018-02-12T20:25:10.159Z,77.72
2018-02-12T20:27:40.828Z,77.88
2018-02-12T20:30:11.026Z,78.42
2018-02-12T20:32:40.944Z,78.60
2018-02-12T20:35:12.017Z,77.54
2018-02-12T20:40:15.983Z,77.95
2018-02-12T20:42:46.902Z,78.08
2018-02-12T20:45:26.719Z,78.51
2018-02-12T20:47:57.315Z,78.71
2018-02-12T20:50:29.405Z,79.55
2018-02-12T20:53:00.018Z,80.01
2018-02-12T20:55:31.236Z,80.49
2018-02-12T20:58:01.280Z,80.37
2018-02-12T21:00:31.237Z,81.21
2018-02-12T21:03:02.018Z,82.02
2018-02-12T21:05:34.577Z,82.44
2018-02-12T21:08:04.632Z,82.01
2018-02-12T21:10:38.695Z,81.59
2018-02-12T21:13:08.540Z,81.52
2018-02-12T21:15:38.881Z,81.81
2018-02-12T21:18:09.398Z,81.68
2018-02-12T21:20:41.227Z,81.39
2018-02-12T21:23:11.022Z,81.16
2018-02-12T21:25:40.986Z,81.53
2018-02-12T21:28:11.063Z,81.68
2018-02-12T21:30:40.978Z,82.02
2018-02-12T21:33:10.930Z,82.54
2018-02-12T21:35:41.099Z,83.25
2018-02-12T21:38:11.145Z,83.45
2018-02-12T21:40:44.234Z,84.42
2018-02-12T21:43:19.269Z,84.72
2018-02-12T21:45:49.404Z,85.10
2018-02-12T21:48:20.143Z,85.70
2018-02-12T21:50:55.058Z,86.00
2018-02-12T21:53:25.153Z,85.02
2018-02-12T21:55:55.005Z,84.62
2018-02-12T21:58:24.924Z,84.54
2018-02-12T22:00:54.910Z,85.21
2018-02-12T22:03:24.815Z,85.44
2018-02-12T22:05:54.481Z,85.93
2018-02-12T22:08:24.320Z,85.50
2018-02-12T22:10:54.228Z,85.30
2018-02-12T22:13:24.203Z,83.83
2018-02-12T22:15:54.064Z,83.38
2018-02-12T22:18:23.632Z,83.41
2018-02-12T22:20:53.666Z,83.45
2018-02-12T22:23:25.962Z,83.42
2018-02-12T22:25:56.173Z,83.21
2018-02-12T22:28:26.544Z,83.29
2018-02-12T22:30:58.011Z,83.38
2018-02-12T22:33:27.852Z,82.82
2018-02-12T22:35:57.683Z,82.36
2018-02-12T22:38:27.723Z,82.63
2018-02-12T22:40:57.559Z,82.62
2018-02-12T22:43:27.688Z,82.49
2018-02-12T22:45:57.552Z,83.19
2018-02-12T22:48:27.597Z,83.03
2018-02-12T22:50:57.642Z,83.53
2018-02-12T22:53:27.479Z,82.98
2018-02-12T22:55:57.318Z,82.89
2018-02-12T22:58:27.228Z,83.15
2018-02-12T23:00:57.125Z,82.87
2018-02-12T23:03:26.680Z,82.55
2018-02-12T23:05:56.485Z,82.82
2018-02-12T23:08:26.375Z,83.23
2018-02-12T23:10:56.249Z,83.44
2018-02-12T23:13:26.133Z,83.92
2018-02-12T23:15:56.313Z,84.25
2018-02-12T23:18:26.311Z,84.55
2018-02-12T23:20:56.830Z,84.64
2018-02-12T23:23:26.762Z,85.84
2018-02-12T23:25:56.594Z,86.64
2018-02-12T23:28:26.400Z,87.07
2018-02-12T23:30:56.283Z,87.22
2018-02-12T23:33:26.112Z,86.82
2018-02-12T23:35:55.965Z,86.56
2018-02-12T23:38:25.748Z,85.46
2018-02-12T23:40:55.586Z,84.74
2018-02-12T23:43:25.415Z,84.07
2018-02-12T23:45:55.278Z,83.54
2018-02-12T23:48:25.103Z,82.94
2018-02-12T23:50:54.904Z,82.88
2018-02-12T23:53:24.740Z,82.34
2018-02-12T23:55:54.548Z,82.14
2018-02-12T23:58:24.616Z,81.93
